ADDS METAR Data INFO
IDs: Format: Raw Decoded Include TAF

Data at: 0512 UTC 22 Jul 2017

KF44 220455Z AUTO 17003KT 10SM CLR 27/22 A2996 RMK AO2
KF44 220435Z AUTO 15003KT 10SM CLR 27/22 A2996 RMK AO2
KF44 220415Z AUTO 00000KT 10SM CLR 26/22 A2996 RMK AO2
KF44 220355Z AUTO 14003KT 10SM CLR 27/22 A2996 RMK AO2
KF44 220335Z AUTO 00000KT 10SM CLR 27/22 A2996 RMK AO2
KF44 220315Z AUTO 00000KT 10SM CLR 27/22 A2995 RMK AO2
KF44 220255Z AUTO 14003KT 10SM CLR 26/22 A2994 RMK AO2
KF44 220235Z AUTO 00000KT 10SM CLR 27/22 A2994 RMK AO2
KF44 220215Z AUTO 00000KT 10SM CLR 28/21 A2993 RMK AO2
KF44 220155Z AUTO 00000KT 10SM CLR 30/21 A2993 RMK AO2
KF44 220135Z AUTO 14003KT 10SM CLR 31/21 A2992 RMK AO2
KF44 220110Z AUTO 15003KT 10SM CLR 31/21 A2991 RMK AO2
KF44 220055Z AUTO 14003KT 10SM CLR 32/21 A2991 RMK AO2
KF44 220035Z AUTO 13004KT 10SM CLR 33/20 A2991 RMK AO2
KF44 220015Z AUTO 13006KT 10SM CLR 33/19 A2991 RMK AO2
KF44 212355Z AUTO 15007KT 10SM CLR 33/19 A2992 RMK AO2
KF44 212335Z AUTO 14005KT 10SM CLR 34/20 A2992 RMK AO2
KF44 212315Z AUTO 12007KT 10SM CLR 33/20 A2992 RMK AO2
KF44 212255Z AUTO 14006KT 10SM SCT060 34/21 A2993 RMK AO2
KF44 212235Z AUTO 16006KT 10SM SCT060 SCT075 34/21 A2993 RMK AO2
KF44 212215Z AUTO 16006KT 10SM BKN060 35/21 A2993 RMK AO2
KF44 212155Z AUTO 18006KT 10SM SCT060 SCT070 35/20 A2994 RMK AO2
KF44 212135Z AUTO 16009KT 10SM SCT060 SCT070 35/20 A2994 RMK AO2
KF44 212115Z AUTO 14007KT 10SM SCT060 35/20 A2995 RMK AO2
KF44 212055Z AUTO 15005KT 10SM SCT070 35/19 A2996 RMK AO2
KF44 212035Z AUTO 27003KT 10SM CLR 35/20 A2996 RMK AO2
KF44 212015Z AUTO 16004KT 10SM CLR 35/20 A2997 RMK AO2
KF44 211955Z AUTO 17005KT 10SM CLR 34/20 A2998 RMK AO2
KF44 211935Z AUTO 17003KT 10SM CLR 34/20 A2998 RMK AO2
KF44 211915Z AUTO 16005KT 10SM CLR 34/21 A2999 RMK AO2
KF44 211855Z AUTO 14007KT 10SM SCT050 33/20 A3000 RMK AO2
KF44 211835Z AUTO 18003KT 10SM SCT050 33/21 A3001 RMK AO2
KF44 211815Z AUTO 16005KT 10SM SCT048 33/21 A3001 RMK AO2
KF44 211755Z AUTO 15007KT 10SM SCT046 33/21 A3001 RMK AO2
KF44 211735Z AUTO 13005KT 10SM SCT048 33/21 A3002 RMK AO2
KF44 211715Z AUTO 19005KT 10SM CLR 32/21 A3002 RMK AO2
KF44 211655Z AUTO 18007KT 10SM CLR 32/21 A3003 RMK AO2
KF44 211635Z AUTO 21004KT 10SM CLR 32/21 A3003 RMK AO2
KF44 211615Z AUTO 23004KT 10SM CLR 32/21 A3003 RMK AO2
KF44 211555Z AUTO 21004KT 10SM CLR 31/21 A3004 RMK AO2
KF44 211535Z AUTO 00000KT 10SM CLR 30/21 A3004 RMK AO2
KF44 211515Z AUTO 00000KT 10SM CLR 30/22 A3004 RMK AO2
KF44 211455Z AUTO 21005KT 10SM CLR 29/22 A3004 RMK AO2
KF44 211435Z AUTO 22003KT 10SM CLR 28/22 A3005 RMK AO2
KF44 211415Z AUTO 21004KT 10SM CLR 28/22 A3005 RMK AO2
KF44 211355Z AUTO 00000KT 10SM CLR 27/22 A3005 RMK AO2
KF44 211335Z AUTO 17003KT 10SM CLR 26/23 A3005 RMK AO2
KF44 211315Z AUTO 17004KT 10SM CLR 26/24 A3005 RMK AO2
KF44 211255Z AUTO 00000KT 10SM CLR 25/24 A3004 RMK AO2
KF44 211235Z AUTO 00000KT 10SM CLR 23/23 A3004 RMK AO2
KF44 211215Z AUTO 00000KT 10SM CLR 23/23 A3003 RMK AO2
KF44 211155Z AUTO 00000KT 10SM CLR 22/22 A3003 RMK AO2
KF44 211135Z AUTO 00000KT 10SM CLR 22/22 A3003 RMK AO2
KF44 211115Z AUTO 00000KT 10SM CLR 22/22 A3002 RMK AO2
KF44 211055Z AUTO 00000KT 10SM CLR 22/22 A3001 RMK AO2
KF44 211035Z AUTO 00000KT 10SM CLR 22/22 A3001 RMK AO2
KF44 211015Z AUTO 00000KT 10SM CLR 22/22 A3001 RMK AO2
KF44 210955Z AUTO 00000KT 10SM CLR 22/22 A3001 RMK AO2
KF44 210935Z AUTO 00000KT 10SM CLR 23/23 A3001 RMK AO2
KF44 210915Z AUTO 00000KT 10SM CLR 23/22 A3001 RMK AO2
KF44 210855Z AUTO 00000KT 10SM CLR 24/22 A3001 RMK AO2
KF44 210835Z AUTO 00000KT 10SM CLR 25/22 A3001 RMK AO2
KF44 210815Z AUTO 00000KT 10SM CLR 25/22 A3001 RMK AO2
KF44 210755Z AUTO 18003KT 10SM CLR 25/21 A3001 RMK AO2
KF44 210735Z AUTO 00000KT 10SM CLR 26/21 A3001 RMK AO2
KF44 210715Z AUTO 18003KT 10SM CLR 25/21 A3001 RMK AO2
KF44 210655Z AUTO 00000KT 10SM CLR 24/22 A3001 RMK AO2
KF44 210635Z AUTO 00000KT 10SM CLR 25/22 A3001 RMK AO2
KF44 210615Z AUTO 00000KT 10SM CLR 24/22 A3002 RMK AO2
KF44 210555Z AUTO 00000KT 10SM CLR 25/22 A3002 RMK AO2
KF44 210535Z AUTO 00000KT 10SM CLR 25/22 A3002 RMK AO2
KF44 210515Z AUTO 00000KT 10SM CLR 25/22 A3002 RMK AO2
KF44 210455Z AUTO 00000KT 10SM CLR 25/22 A3002 RMK AO2
KF44 210435Z AUTO 00000KT 10SM CLR 25/22 A3002 RMK AO2
KF44 210415Z AUTO 00000KT 10SM CLR 26/22 A3002 RMK AO2
KF44 210355Z AUTO 00000KT 10SM CLR 26/22 A3002 RMK AO2
KF44 210335Z AUTO 00000KT 10SM CLR 26/22 A3002 RMK AO2
KF44 210315Z AUTO 00000KT 10SM CLR 26/22 A3001 RMK AO2
KF44 210255Z AUTO 00000KT 10SM CLR 27/22 A3001 RMK AO2
KF44 210235Z AUTO 00000KT 10SM CLR 27/22 A3000 RMK AO2
KF44 210215Z AUTO 00000KT 10SM CLR 28/21 A3000 RMK AO2
KF44 210155Z AUTO 00000KT 10SM CLR 28/22 A2999 RMK AO2
KF44 210135Z AUTO 00000KT 10SM CLR 30/21 A2999 RMK AO2
KF44 210115Z AUTO 00000KT 10SM CLR 31/20 A2999 RMK AO2
KF44 210055Z AUTO 13003KT 10SM CLR 32/20 A2999 RMK AO2
KF44 210035Z AUTO 14003KT 10SM CLR 33/20 A2999 RMK AO2
KF44 210015Z AUTO 13005KT 10SM CLR 33/20 A2999 RMK AO2
KF44 202355Z AUTO 15005KT 10SM CLR 33/21 A2999 RMK AO2
KF44 202335Z AUTO 13006KT 10SM CLR 33/21 A2999 RMK AO2
KF44 202315Z AUTO 11004KT 10SM CLR 34/21 A2999 RMK AO2
KF44 202255Z AUTO 00000KT 10SM CLR 35/21 A2999 RMK AO2
KF44 202235Z AUTO 14003KT 10SM SCT055 34/21 A3000 RMK AO2
KF44 202215Z AUTO 12004KT 10SM SCT055 35/21 A3001 RMK AO2
KF44 202155Z AUTO 14007KT 10SM CLR 35/21 A3001 RMK AO2
KF44 202135Z AUTO 17005KT 10SM SCT055 33/20 A3002 RMK AO2
KF44 202115Z AUTO 12004KT 10SM SCT055 35/20 A3002 RMK AO2
KF44 202055Z AUTO 22003KT 10SM SCT055 35/21 A3003 RMK AO2
KF44 202035Z AUTO 00000KT 10SM SCT055 35/21 A3004 RMK AO2
KF44 202015Z AUTO 00000KT 10SM CLR 34/21 A3005 RMK AO2
KF44 201955Z AUTO 19004KT 10SM CLR 34/21 A3005 RMK AO2
KF44 201935Z AUTO 22005KT 10SM SCT049 34/21 A3006 RMK AO2
KF44 201915Z AUTO 12006KT 10SM SCT049 34/21 A3007 RMK AO2
KF44 201855Z AUTO 16004KT 5SM HZ SCT047 33/21 A3008 RMK AO2
KF44 201835Z AUTO 00000KT 10SM SCT046 33/21 A3009 RMK AO2
KF44 201815Z AUTO 18006KT 10SM SCT046 33/21 A3010 RMK AO2
KF44 201755Z AUTO 00000KT 10SM SCT044 33/21 A3011 RMK AO2
KF44 201735Z AUTO 15004KT 10SM SCT044 33/21 A3011 RMK AO2
KF44 201715Z AUTO 21005KT 10SM SCT042 32/21 A3012 RMK AO2